Great Barton, United Kingdom
Current Conditions -  °F | °C
As of 1:58 PM on Wednesday 28 Jan 2015 (Local Time) from EGUL Reporting Station
Few Clouds Few Clouds  
Wind Chill: 32°   Ceiling: Unl
Heat Index: 42°   Visibility: 6mi
Dew Point: 39°   Wind: 23mph
Humidity: 89%   Direction: 280°W
Pressure: 29.44"   Gusts: 38mph
Location:  52.27°N, 0.77°E
Report Text: EGUL 281358Z AUTO 28020G33KT 9999 FEW041 06/04 A2944 RMK AO2 PK WND 28033/38 RAB1258E1259DZE1258 SLP973 P0000 T00550038
Loading
Personal Weather Stations






























Interactive Weather Map New forecast layout! Learn more

10-Day Weather Forecast

Advertisements
Track Severe Weather on mobile